Aérodrome :
LOGIN :

S'inscrire | Disclaimer

   EN    FR    IT 

 










Légende :    VFR   VFR Marginal   IFR   IFR Intensif   IFR Très Intensif
Visi : 
Plafond : 
>= 8 km
>= 3000ft
5 à 8 km
1000 à 3000 ft
1500m à 5 km
500 à 1000 ft
800 à 1500m
200 à 500 ft
< 800m
< 200 ft
Symboles :   Orages  Brouillard  Fortes neiges  Fortes précipitations  Vent > 20 kt
SIGMETs :   Divers  Orages  Givrage  Turbulence  Onde Orograph.  Cendres Volcan.







- Altitude de l'aérodrome : 1079 ft


ETIK - Illesheim Air Base

DERNIER METAR :
  • 190856Z AUTO 11011G16KT 9999 CLR 17/02 A3039 RMK AO2 SLP291 T01680024 52005 $

METARs EXPIRÉS :
  • 190756Z AUTO 11009G15KT 9999 CLR 15/02 A3039 RMK AO2 SLP291 T01480023 $
  • 190656Z AUTO 07005KT 9999 CLR 13/04 A3038 RMK AO2 SLP289 T01260038 $
  • 190556Z AUTO 09003KT 9999 CLR 09/04 A3037 RMK AO2 SLP286 T00890041 10089 20041 52014 $

TAF AMD TAF ETIK
Valide du 18 à 22h jusqu'au 19 à 20h UTC


182214Z 1822/1920 10009KT 9999 FEW100 QNH3023INS
BECMG 1908/1909 10012G20KT 9999 FEW100 QNH3035INS
BECMG 1917/1918 10009KT 9999 SKC QNH3037INS TX22/1916Z TN06/1904Z LAST NO AMDS AFT 1822 NEXT 2204
Pas de NOTAMs connus pour ce terrain.



MET'MAP, la Météo Aéronautique d'un coup d'oeil ! - Copyright ORBIFLY Décembre 2007 - Disclaimer

ORBIFLY MET'MAP TEAM :

Programmation & Développement : Alexandra Zaïnal
Conception & Développement : Baudouin d'Aumeries
Co-Programmation & Développement : Marc-Olivier Méhu
Soutien technique & logistique : Manuel Goepfert

Contact : metmap@orbifly.com




SOURCES & CREDITS :

   NOAA